Time;durP1;ratioP1;P1;durP2;ratioP2;P2;SDS_P1;SDS_P2;PMS_P1;PMS_P2;Temp;Humidity;BMP_temperature;BMP_pressure;BME280_temperature;BME280_humidity;BME280_pressure;Samples;Min_cycle;Max_cycle;Signal;HPM_P1;HPM_P2
2022/12/19 00:01:15;;;;;;;23.13;14.97;;;;;;;-1.92;100.00;101059.91;6249061;22;20287;-78
2022/12/19 00:03:43;;;;;;;24.57;14.60;;;;;;;-1.98;100.00;101049.81;6275877;22;20212;-78
2022/12/19 00:06:10;;;;;;;24.20;16.10;;;;;;;-2.01;100.00;101048.25;6248286;22;20204;-78
2022/12/19 00:08:39;;;;;;;24.00;14.77;;;;;;;-1.98;100.00;101061.16;6248471;22;20610;-79
2022/12/19 00:11:06;;;;;;;26.33;16.60;;;;;;;-2.10;100.00;101063.81;6248711;22;20210;-78
2022/12/19 00:13:32;;;;;;;25.80;16.50;;;;;;;-2.07;100.00;101064.44;6248849;22;20648;-79
2022/12/19 00:16:12;;;;;;;23.63;15.07;;;;;;;-2.01;100.00;101055.28;6275571;22;20281;-78
2022/12/19 00:18:40;;;;;;;24.47;14.47;;;;;;;-2.15;100.00;101055.38;6249239;22;20219;-79
2022/12/19 00:21:08;;;;;;;24.80;15.30;;;;;;;-2.14;100.00;101057.91;6249071;22;20258;-78
2022/12/19 00:23:35;;;;;;;22.83;14.87;;;;;;;-2.17;100.00;101054.63;6248762;22;20204;-78
2022/12/19 00:26:16;;;;;;;25.00;15.03;;;;;;;-2.21;100.00;101056.63;6275231;22;20215;-77
2022/12/19 00:28:49;;;;;;;22.60;14.63;;;;;;;-2.27;100.00;101062.28;6224094;22;20215;-78
2022/12/19 00:31:18;;;;;;;24.23;14.67;;;;;;;-2.18;100.00;101052.94;6223492;22;20282;-78
2022/12/19 00:33:45;;;;;;;21.13;14.23;;;;;;;-2.10;100.00;101055.91;6248905;22;20210;-78
2022/12/19 00:36:19;;;;;;;24.57;15.23;;;;;;;-2.20;100.00;101044.34;6248349;22;20656;-78
2022/12/19 00:38:50;;;;;;;21.00;14.00;;;;;;;-2.11;100.00;101048.97;6275493;22;20231;-77
2022/12/19 00:41:22;;;;;;;22.73;13.97;;;;;;;-2.05;100.00;101044.13;6248840;22;20207;-78
2022/12/19 00:43:57;;;;;;;21.60;13.63;;;;;;;-1.99;100.00;101045.50;6275184;22;20833;-78
2022/12/19 00:46:24;;;;;;;22.07;13.67;;;;;;;-2.06;100.00;101055.59;6274495;22;20502;-78
2022/12/19 00:48:51;;;;;;;21.17;13.50;;;;;;;-2.07;100.00;101053.06;6248012;22;20274;-78
2022/12/19 00:51:21;;;;;;;19.13;12.70;;;;;;;-1.99;100.00;101048.97;6248292;22;20215;-78
2022/12/19 00:53:49;;;;;;;21.07;13.23;;;;;;;-2.06;100.00;101055.59;6274934;22;20208;-78
2022/12/19 00:56:19;;;;;;;19.13;12.87;;;;;;;-2.03;100.00;101059.78;6248360;22;20267;-78
2022/12/19 00:58:46;;;;;;;20.33;12.70;;;;;;;-1.92;100.00;101055.50;6247788;22;20211;-78
2022/12/19 01:01:22;;;;;;;17.53;12.33;;;;;;;-1.75;100.00;101064.00;6275259;22;20207;-78
2022/12/19 01:03:49;;;;;;;19.00;12.23;;;;;;;-1.80;100.00;101052.03;6248395;22;20215;-78
2022/12/19 01:06:36;;;;;;;18.07;11.70;;;;;;;-1.61;100.00;101048.09;6275029;22;20211;-78
2022/12/19 01:09:04;;;;;;;19.03;12.37;;;;;;;-1.77;100.00;101054.44;6275699;22;20206;-78
2022/12/19 01:14:17;;;;;;;19.10;12.37;;;;;;;-1.74;100.00;101031.53;6226252;22;20203;-78
2022/12/19 01:16:49;;;;;;;18.77;12.47;;;;;;;-1.68;100.00;101021.41;6249412;22;20267;-78
2022/12/19 01:19:17;;;;;;;18.60;12.33;;;;;;;-1.66;100.00;101014.28;6223006;22;20282;-78
2022/12/19 01:21:44;;;;;;;16.93;11.53;;;;;;;-1.64;100.00;101015.00;6275151;22;20239;-78
2022/12/19 01:24:11;;;;;;;17.60;11.70;;;;;;;-1.63;100.00;101000.91;6274781;22;20725;-78
2022/12/19 01:26:39;;;;;;;17.97;12.63;;;;;;;-1.81;100.00;100992.53;6276366;22;20208;-79
2022/12/19 01:29:05;;;;;;;18.50;11.37;;;;;;;-1.66;100.00;100988.00;6248944;22;20672;-78
2022/12/19 01:31:32;;;;;;;18.33;12.27;;;;;;;-1.58;100.00;100992.69;6223200;22;20258;-78
2022/12/19 01:34:01;;;;;;;19.60;12.33;;;;;;;-1.64;100.00;100987.88;6251778;22;20207;-79
2022/12/19 01:36:28;;;;;;;18.27;11.03;;;;;;;-1.65;100.00;100983.56;6202587;22;20200;-79
2022/12/19 01:38:56;;;;;;;18.50;12.17;;;;;;;-1.67;100.00;100982.84;6252235;22;20668;-79
2022/12/19 01:41:26;;;;;;;19.47;12.47;;;;;;;-1.69;100.00;100976.88;6252420;22;20219;-80
2022/12/19 01:44:00;;;;;;;19.33;12.53;;;;;;;-1.74;100.00;100976.34;6251859;22;20287;-79
2022/12/19 01:46:34;;;;;;;18.03;11.77;;;;;;;-1.70;100.00;100972.56;6250837;22;20203;-79
2022/12/19 01:49:02;;;;;;;17.53;11.93;;;;;;;-1.72;100.00;100975.28;6251696;22;20210;-80
2022/12/19 01:51:42;;;;;;;19.00;11.63;;;;;;;-1.75;100.00;100969.41;6226561;22;20203;-79
2022/12/19 01:54:12;;;;;;;16.87;10.90;;;;;;;-1.72;100.00;100964.75;6249401;22;20661;-79
2022/12/19 01:56:41;;;;;;;14.80;10.07;;;;;;;-1.51;100.00;100959.78;6225371;22;20207;-79
2022/12/19 01:59:13;;;;;;;15.03;10.30;;;;;;;-1.59;100.00;100946.34;6224978;22;20215;-79
2022/12/19 02:01:44;;;;;;;16.90;10.97;;;;;;;-1.65;100.00;100952.03;6226281;22;20515;-79
2022/12/19 02:04:20;;;;;;;15.80;10.13;;;;;;;-1.53;100.00;100938.84;6278965;22;20212;-79
2022/12/19 02:06:47;;;;;;;17.83;11.07;;;;;;;-1.53;100.00;100946.75;6252306;22;20212;-79
2022/12/19 02:09:14;;;;;;;17.03;10.47;;;;;;;-1.48;100.00;100951.66;6250826;22;20287;-78
2022/12/19 02:11:41;;;;;;;16.57;11.53;;;;;;;-1.59;100.00;100947.19;6249896;22;20218;-78
2022/12/19 02:14:08;;;;;;;16.60;11.13;;;;;;;-1.51;100.00;100952.75;6249351;22;20206;-79
2022/12/19 02:16:54;;;;;;;15.73;10.60;;;;;;;-1.57;100.00;100952.31;6276885;22;20208;-78
2022/12/19 02:19:58;;;;;;;15.50;10.43;;;;;;;-1.59;100.00;100949.81;6250390;22;20215;-79
2022/12/19 02:22:25;;;;;;;19.60;11.83;;;;;;;-1.58;100.00;100948.84;6250047;22;20202;-78
2022/12/19 02:25:24;;;;;;;19.73;12.73;;;;;;;-1.55;100.00;100948.66;6277088;22;20212;-78
2022/12/19 02:27:59;;;;;;;18.73;12.17;;;;;;;-1.70;100.00;100944.50;6225349;22;20205;-79
2022/12/19 02:30:39;;;;;;;17.87;12.37;;;;;;;-1.73;100.00;100941.25;6250449;22;20210;-79
2022/12/19 02:33:24;;;;;;;15.80;10.57;;;;;;;-1.79;100.00;100943.34;6249986;22;20520;-79
2022/12/19 02:36:07;;;;;;;17.67;12.20;;;;;;;-1.80;100.00;100946.09;6250512;22;20212;-78
2022/12/19 02:38:47;;;;;;;17.87;11.40;;;;;;;-1.81;100.00;100940.00;6224625;22;20264;-79
2022/12/19 02:41:19;;;;;;;16.73;11.50;;;;;;;-1.82;100.00;100929.63;6224726;22;20296;-79
2022/12/19 02:43:48;;;;;;;17.57;11.30;;;;;;;-1.73;100.00;100923.69;6224921;22;20204;-79
2022/12/19 02:46:25;;;;;;;16.40;10.57;;;;;;;-1.66;100.00;100916.19;6226373;22;20200;-79
2022/12/19 02:48:53;;;;;;;16.80;11.07;;;;;;;-1.85;100.00;100909.63;6277107;22;20214;-79
2022/12/19 02:51:20;;;;;;;16.90;10.83;;;;;;;-1.70;100.00;100917.38;6225359;22;20253;-79
2022/12/19 02:53:46;;;;;;;16.73;10.70;;;;;;;-1.70;100.00;100907.69;6250378;22;20204;-80
2022/12/19 02:56:35;;;;;;;16.33;10.43;;;;;;;-1.65;100.00;100913.47;6248273;22;20208;-79
2022/12/19 02:59:17;;;;;;;15.30;10.37;;;;;;;-1.57;100.00;100921.63;6251794;22;20656;-80
2022/12/19 03:01:49;;;;;;;16.10;10.57;;;;;;;-1.60;100.00;100910.50;6252791;22;20212;-79
2022/12/19 03:04:28;;;;;;;16.83;11.50;;;;;;;-1.62;100.00;100915.88;6226234;22;20227;-79
2022/12/19 03:07:03;;;;;;;16.37;11.07;;;;;;;-1.74;100.00;100908.03;6251138;22;20231;-80
2022/12/19 03:09:50;;;;;;;18.83;12.23;;;;;;;-1.62;100.00;100907.13;6227231;22;20204;-79
2022/12/19 03:12:26;;;;;;;16.23;10.40;;;;;;;-1.59;100.00;100906.94;6250164;22;20204;-79
2022/12/19 03:14:54;;;;;;;16.33;10.67;;;;;;;-1.62;100.00;100907.13;6277382;22;20224;-79
2022/12/19 03:17:21;;;;;;;16.43;10.73;;;;;;;-1.63;100.00;100908.13;6224858;22;20231;-79
2022/12/19 03:19:47;;;;;;;17.10;11.37;;;;;;;-1.57;100.00;100913.75;6250898;22;20208;-80
2022/12/19 03:22:14;;;;;;;17.70;11.70;;;;;;;-1.55;100.00;100921.53;6260309;22;20212;-81
2022/12/19 03:24:41;;;;;;;18.10;11.77;;;;;;;-1.60;100.00;100929.75;6262645;22;20319;-81
2022/12/19 03:27:20;;;;;;;16.83;11.40;;;;;;;-1.52;100.00;100923.91;6262931;22;20210;-81
2022/12/19 03:29:59;;;;;;;17.47;11.93;;;;;;;-1.56;100.00;100928.56;6236382;22;20582;-81
2022/12/19 03:32:27;;;;;;;20.50;13.07;;;;;;;-1.65;100.00;100918.72;6260398;22;20218;-80
2022/12/19 03:35:07;;;;;;;18.33;11.87;;;;;;;-1.47;100.00;100906.88;6240168;23;20209;-80
2022/12/19 03:37:37;;;;;;;16.63;10.83;;;;;;;-1.50;100.00;100912.38;6250470;22;20208;-81
2022/12/19 03:40:08;;;;;;;17.10;11.67;;;;;;;-1.47;100.00;100916.53;6229337;22;20200;-78
2022/12/19 03:45:28;;;;;;;20.23;12.60;;;;;;;-1.42;100.00;100914.44;6253709;22;20212;-79
2022/12/19 03:47:58;;;;;;;19.67;12.63;;;;;;;-1.35;100.00;100915.63;6249344;22;20200;-79
2022/12/19 03:50:30;;;;;;;21.43;13.93;;;;;;;-1.30;100.00;100920.56;6247545;22;20203;-79
2022/12/19 03:53:02;;;;;;;19.83;12.43;;;;;;;-1.38;100.00;100913.25;6250595;22;20184;-78
2022/12/19 03:55:40;;;;;;;18.10;11.97;;;;;;;-1.36;100.00;100922.72;6276377;22;20208;-78
2022/12/19 03:58:10;;;;;;;18.37;12.17;;;;;;;-1.42;100.00;100922.31;6223438;22;20273;-81
2022/12/19 04:00:40;;;;;;;18.93;13.10;;;;;;;-1.47;100.00;100920.00;6249723;22;20232;-79
2022/12/19 04:03:07;;;;;;;20.67;13.63;;;;;;;-1.44;100.00;100916.31;6249750;22;20203;-79
2022/12/19 04:05:35;;;;;;;19.77;13.37;;;;;;;-1.46;100.00;100915.59;6276449;22;20208;-79
2022/12/19 04:08:05;;;;;;;20.73;12.87;;;;;;;-1.40;100.00;100915.16;6249119;22;20287;-78
2022/12/19 04:10:34;;;;;;;20.50;13.00;;;;;;;-1.47;100.00;100906.03;6249291;22;20228;-78
2022/12/19 04:13:11;;;;;;;20.53;12.43;;;;;;;-1.42;100.00;100909.16;6249798;22;20204;-79
2022/12/19 04:15:57;;;;;;;19.27;12.53;;;;;;;-1.41;100.00;100903.81;6249487;22;20262;-79
2022/12/19 04:18:24;;;;;;;15.67;11.33;;;;;;;-1.37;100.00;100900.00;6248866;22;20274;-79
2022/12/19 04:21:07;;;;;;;21.07;12.73;;;;;;;-1.34;100.00;100905.03;6249234;22;20196;-79
2022/12/19 04:23:39;;;;;;;17.57;12.27;;;;;;;-1.31;100.00;100911.84;6224162;22;20204;-79
2022/12/19 04:26:06;;;;;;;19.63;12.97;;;;;;;-1.33;100.00;100905.88;6250670;22;20265;-79
2022/12/19 04:29:00;;;;;;;19.10;12.23;;;;;;;-1.30;100.00;100900.38;6251774;22;20216;-80
2022/12/19 04:31:27;;;;;;;20.27;12.50;;;;;;;-1.30;100.00;100899.53;6199421;22;20238;-79
2022/12/19 04:33:54;;;;;;;19.00;12.70;;;;;;;-1.37;100.00;100893.91;6249062;22;21030;-78
2022/12/19 04:36:20;;;;;;;20.77;12.93;;;;;;;-1.35;100.00;100892.81;6274574;22;20282;-78
2022/12/19 04:38:47;;;;;;;19.90;13.10;;;;;;;-1.30;100.00;100892.47;6275189;22;20648;-78
2022/12/19 04:41:14;;;;;;;21.17;13.63;;;;;;;-1.25;100.00;100892.97;6275262;22;20251;-78
2022/12/19 04:43:40;;;;;;;19.70;13.50;;;;;;;-1.37;100.00;100897.38;6248553;22;20280;-78
2022/12/19 04:46:07;;;;;;;19.97;12.73;;;;;;;-1.27;100.00;100892.28;6275068;22;20240;-78
2022/12/19 04:48:35;;;;;;;19.47;12.87;;;;;;;-1.37;100.00;100881.59;6275888;22;20675;-78
2022/12/19 04:51:02;;;;;;;21.73;14.13;;;;;;;-1.35;100.00;100891.97;6275368;22;20212;-78
2022/12/19 04:53:29;;;;;;;21.00;13.07;;;;;;;-1.39;100.00;100878.22;6281126;22;20258;-79
2022/12/19 04:56:00;;;;;;;20.00;13.90;;;;;;;-1.38;100.00;100885.16;6227295;22;20609;-80
2022/12/19 04:58:27;;;;;;;20.60;13.70;;;;;;;-1.41;100.00;100876.69;6226241;22;20199;-79
2022/12/19 05:00:53;;;;;;;21.73;14.87;;;;;;;-1.65;100.00;100860.06;6253513;22;20243;-79
2022/12/19 05:03:20;;;;;;;20.47;14.57;;;;;;;-1.61;100.00;100872.03;6280229;22;20203;-80
2022/12/19 05:05:47;;;;;;;22.83;14.90;;;;;;;-1.72;100.00;100862.28;6252727;22;20212;-79
2022/12/19 05:08:13;;;;;;;23.53;14.27;;;;;;;-1.67;100.00;100868.06;6252043;22;20208;-80
2022/12/19 05:10:40;;;;;;;23.33;18.30;;;;;;;-1.61;100.00;100872.03;6251110;22;20398;-80
2022/12/19 05:13:08;;;;;;;24.53;15.93;;;;;;;-1.77;100.00;100877.53;6251979;22;20206;-79
2022/12/19 05:15:34;;;;;;;23.50;15.70;;;;;;;-1.70;100.00;100875.31;6250182;22;20578;-79
2022/12/19 05:18:01;;;;;;;23.90;15.33;;;;;;;-1.69;100.00;100856.84;6250414;22;20210;-79
2022/12/19 05:20:27;;;;;;;22.97;15.00;;;;;;;-1.74;100.00;100866.00;6277460;22;20682;-79
2022/12/19 05:22:54;;;;;;;25.30;15.60;;;;;;;-1.77;100.00;100862.63;6226271;22;20211;-80
2022/12/19 05:25:21;;;;;;;26.00;16.70;;;;;;;-1.84;100.00;100860.56;6262977;22;20794;-79
2022/12/19 05:27:47;;;;;;;26.37;16.63;;;;;;;-1.98;100.00;100860.72;6249652;22;20208;-78
2022/12/19 05:30:14;;;;;;;25.73;16.73;;;;;;;-2.06;100.00;100871.78;6274311;22;20208;-78
2022/12/19 05:32:41;;;;;;;26.83;16.93;;;;;;;-2.06;100.00;100871.78;6275840;22;20819;-78
2022/12/19 05:35:08;;;;;;;28.77;17.27;;;;;;;-2.14;100.00;100868.00;6248458;22;20592;-78
2022/12/19 05:37:34;;;;;;;23.70;15.53;;;;;;;-2.16;100.00;100868.13;6250715;22;20204;-78
2022/12/19 05:40:01;;;;;;;29.37;17.93;;;;;;;-2.15;100.00;100876.84;6277264;22;20243;-78
2022/12/19 05:42:28;;;;;;;27.63;17.67;;;;;;;-2.22;100.00;100873.78;6251026;22;20203;-78
2022/12/19 05:44:54;;;;;;;30.13;18.10;;;;;;;-2.34;100.00;100880.75;6278120;22;20676;-79
2022/12/19 05:47:21;;;;;;;27.80;17.13;;;;;;;-2.28;100.00;100869.81;6251675;22;20290;-78
2022/12/19 05:49:48;;;;;;;25.53;15.83;;;;;;;-2.16;100.00;100867.28;6276667;22;20745;-78
2022/12/19 05:52:14;;;;;;;28.07;16.30;;;;;;;-2.23;100.00;100872.09;6262095;22;20687;-79
2022/12/19 05:54:41;;;;;;;27.93;16.60;;;;;;;-2.28;100.00;100872.44;6275866;22;20283;-79
2022/12/19 05:57:08;;;;;;;26.10;16.37;;;;;;;-2.32;100.00;100864.88;6277210;22;20214;-79
2022/12/19 05:59:34;;;;;;;27.90;17.63;;;;;;;-2.27;100.00;100874.13;6250034;22;20203;-79
2022/12/19 06:02:01;;;;;;;28.00;17.13;;;;;;;-2.25;100.00;100882.75;6250484;22;20200;-81
2022/12/19 06:04:29;;;;;;;30.83;18.30;;;;;;;-2.45;100.00;100870.16;6228275;22;20653;-81
2022/12/19 06:06:55;;;;;;;31.60;17.67;;;;;;;-2.40;100.00;100868.06;6201247;22;20207;-79
2022/12/19 06:09:22;;;;;;;31.40;18.60;;;;;;;-2.44;100.00;100868.38;6277487;22;20231;-80
2022/12/19 06:11:49;;;;;;;30.37;18.07;;;;;;;-2.57;100.00;100880.66;6200680;22;20230;-82
2022/12/19 06:14:16;;;;;;;28.93;17.60;;;;;;;-2.66;100.00;100879.53;6279097;22;20204;-81
2022/12/19 06:16:43;;;;;;;25.67;16.17;;;;;;;-2.70;100.00;100881.50;6252900;22;20223;-81
2022/12/19 06:19:10;;;;;;;31.27;18.20;;;;;;;-2.72;100.00;100887.81;6225613;22;20231;-81
2022/12/19 06:21:36;;;;;;;32.40;18.40;;;;;;;-2.70;100.00;100889.38;6251758;22;20228;-82
2022/12/19 06:24:13;;;;;;;31.40;18.40;;;;;;;-2.73;100.00;100897.44;6206285;22;20290;-83
2022/12/19 06:26:40;;;;;;;30.90;16.50;;;;;;;-2.69;100.00;100895.44;6253932;22;20232;-82
2022/12/19 06:29:06;;;;;;;29.60;18.23;;;;;;;-2.78;100.00;100893.47;6250524;22;20214;-89
2022/12/19 06:31:33;;;;;;;29.00;17.47;;;;;;;-2.85;100.00;100895.69;6226855;22;20214;-86
2022/12/19 06:34:00;;;;;;;30.87;18.13;;;;;;;-2.80;100.00;100895.38;6225438;22;20657;-77
2022/12/19 06:36:30;;;;;;;31.43;17.30;;;;;;;-2.84;100.00;100889.47;6275345;22;20820;-78
2022/12/19 06:38:57;;;;;;;32.47;18.00;;;;;;;-2.86;100.00;100901.84;6272032;22;20718;-77
2022/12/19 06:44:12;;;;;;;33.53;19.50;;;;;;;-2.98;100.00;100889.53;6273093;22;20211;-77
2022/12/19 06:46:39;;;;;;;32.50;18.63;;;;;;;-2.94;100.00;100891.03;6247103;22;20211;-77
2022/12/19 06:49:08;;;;;;;32.87;18.53;;;;;;;-2.97;100.00;100891.22;6272614;22;20208;-78
2022/12/19 06:51:35;;;;;;;30.57;16.80;;;;;;;-2.90;100.00;100894.31;6274689;22;20200;-77
2022/12/19 06:54:02;;;;;;;29.80;18.60;;;;;;;-2.90;100.00;100879.41;6273140;22;20527;-77
2022/12/19 06:56:36;;;;;;;32.83;18.57;;;;;;;-2.84;100.00;100899.94;6275261;22;20202;-77
2022/12/19 06:59:03;;;;;;;30.17;17.70;;;;;;;-2.86;100.00;100907.09;6222066;22;20215;-78
2022/12/19 07:01:56;;;;;;;30.10;17.80;;;;;;;-2.90;100.00;100891.69;6274095;22;20235;-77
2022/12/19 07:04:28;;;;;;;31.73;16.93;;;;;;;-2.92;100.00;100891.78;6244538;22;20230;-77
2022/12/19 07:06:55;;;;;;;29.33;17.03;;;;;;;-2.94;100.00;100900.69;6248216;22;20234;-78
2022/12/19 07:09:21;;;;;;;28.63;15.83;;;;;;;-2.93;100.00;100899.72;6248051;22;20201;-77
2022/12/19 07:11:48;;;;;;;30.00;17.00;;;;;;;-2.89;100.00;100909.09;6275229;22;20200;-78
2022/12/19 07:14:14;;;;;;;26.70;16.20;;;;;;;-2.94;100.00;100913.81;6274454;22;20203;-77
2022/12/19 07:16:41;;;;;;;27.73;16.10;;;;;;;-2.91;100.00;100914.44;6274916;22;20609;-80
2022/12/19 07:19:08;;;;;;;28.90;16.37;;;;;;;-2.90;100.00;100907.41;6247874;22;20204;-78
2022/12/19 07:21:36;;;;;;;28.70;15.57;;;;;;;-2.91;100.00;100924.94;6247950;22;20208;-78
2022/12/19 07:24:03;;;;;;;26.40;15.30;;;;;;;-2.97;100.00;100927.94;6246103;22;20204;-79
2022/12/19 07:26:30;;;;;;;27.90;16.10;;;;;;;-2.94;100.00;100934.78;6275262;22;20216;-77
2022/12/19 07:28:58;;;;;;;28.50;16.63;;;;;;;-2.93;100.00;100929.41;6248072;22;20551;-78
2022/12/19 07:31:24;;;;;;;28.77;17.23;;;;;;;-2.92;100.00;100938.97;6274965;22;20215;-77
2022/12/19 07:33:51;;;;;;;31.07;17.53;;;;;;;-2.86;100.00;100943.81;6274805;22;20227;-78
2022/12/19 07:36:17;;;;;;;27.57;14.87;;;;;;;-2.90;100.00;100938.88;6274129;22;20307;-78
2022/12/19 07:38:44;;;;;;;26.30;15.43;;;;;;;-2.89;100.00;100951.06;6274787;22;20208;-78
2022/12/19 07:41:11;;;;;;;29.67;16.33;;;;;;;-2.79;100.00;100946.84;6274532;22;20622;-78
2022/12/19 07:43:37;;;;;;;27.30;16.43;;;;;;;-2.72;100.00;100946.34;6274536;22;20271;-78
2022/12/19 07:46:04;;;;;;;31.63;17.10;;;;;;;-2.78;100.00;100954.63;6274135;22;20884;-78
2022/12/19 07:48:31;;;;;;;30.13;15.83;;;;;;;-2.80;100.00;100956.50;6274798;22;20211;-78
2022/12/19 07:50:57;;;;;;;28.27;16.27;;;;;;;-2.71;100.00;100955.06;6275028;22;20534;-78
2022/12/19 07:53:24;;;;;;;33.13;18.53;;;;;;;-2.68;100.00;100954.84;6274780;22;20207;-78
2022/12/19 07:55:51;;;;;;;27.97;16.47;;;;;;;-2.59;100.00;100958.63;6274522;22;20212;-78
2022/12/19 07:58:18;;;;;;;28.33;15.80;;;;;;;-2.64;100.00;100964.19;6245191;22;20649;-79
2022/12/19 08:00:44;;;;;;;30.27;16.33;;;;;;;-2.62;100.00;100961.47;6216292;23;20204;-77
2022/12/19 08:03:11;;;;;;;26.43;15.43;;;;;;;-2.64;100.00;100953.69;6242914;23;20204;-77
2022/12/19 08:05:38;;;;;;;27.87;14.77;;;;;;;-2.52;100.00;100965.97;6242462;23;20204;-77
2022/12/19 08:08:04;;;;;;;27.27;15.93;;;;;;;-2.46;100.00;100969.97;6240937;23;20541;-77
2022/12/19 08:10:31;;;;;;;30.80;16.23;;;;;;;-2.47;100.00;100966.50;6243646;23;20276;-76
2022/12/19 08:12:58;;;;;;;29.97;16.53;;;;;;;-2.44;100.00;100968.94;6242794;23;20553;-76
2022/12/19 08:15:24;;;;;;;28.07;15.77;;;;;;;-2.34;100.00;100970.00;6243428;23;20205;-77
2022/12/19 08:17:53;;;;;;;26.60;15.13;;;;;;;-2.31;100.00;100975.03;6242412;23;20698;-77
2022/12/19 08:20:20;;;;;;;27.40;16.10;;;;;;;-2.28;100.00;100977.44;6243324;23;20243;-77
2022/12/19 08:22:46;;;;;;;30.30;16.03;;;;;;;-2.29;100.00;100975.75;6243312;23;20630;-77
2022/12/19 08:25:13;;;;;;;31.20;16.27;;;;;;;-2.22;100.00;100981.44;6243993;23;20208;-77
2022/12/19 08:27:41;;;;;;;29.20;16.10;;;;;;;-2.18;100.00;100974.19;6243572;23;20267;-77
2022/12/19 08:30:08;;;;;;;29.80;16.50;;;;;;;-2.20;100.00;100978.72;6242732;23;20216;-76
2022/12/19 08:32:35;;;;;;;30.33;15.27;;;;;;;-2.20;100.00;100987.44;6243434;23;20211;-76
2022/12/19 08:35:02;;;;;;;30.77;16.60;;;;;;;-2.06;100.00;100983.84;6243037;23;20213;-79
2022/12/19 08:37:28;;;;;;;29.40;16.30;;;;;;;-2.00;100.00;100979.00;6243587;23;20216;-78
2022/12/19 08:39:55;;;;;;;32.43;15.93;;;;;;;-2.01;100.00;100985.22;6243505;23;20721;-78
2022/12/19 08:42:21;;;;;;;29.23;16.27;;;;;;;-2.09;100.00;100982.25;6228230;23;20210;-77
2022/12/19 08:44:48;;;;;;;28.30;16.23;;;;;;;-1.93;100.00;100993.41;6218044;23;20276;-77
2022/12/19 08:47:15;;;;;;;28.73;16.60;;;;;;;-1.82;100.00;100988.22;6228219;23;20662;-78
2022/12/19 08:49:41;;;;;;;30.57;17.30;;;;;;;-1.72;100.00;100993.66;6244030;23;20275;-78
2022/12/19 08:52:08;;;;;;;30.17;16.90;;;;;;;-1.58;100.00;100993.53;6243076;23;20231;-77
2022/12/19 08:54:35;;;;;;;30.53;15.53;;;;;;;-1.41;100.00;100994.97;6243663;23;20208;-78
2022/12/19 08:57:01;;;;;;;30.83;17.17;;;;;;;-1.20;100.00;101006.56;6215443;23;20269;-77
2022/12/19 08:59:28;;;;;;;28.53;16.43;;;;;;;-1.11;100.00;101002.41;6254683;22;20232;-77
2022/12/19 09:01:59;;;;;;;32.80;17.53;;;;;;;-1.04;100.00;100998.41;6247428;22;20226;-78
2022/12/19 09:04:27;;;;;;;29.80;16.30;;;;;;;-0.80;100.00;100998.41;6247518;22;20199;-78
2022/12/19 09:07:15;;;;;;;29.20;15.80;;;;;;;-0.64;100.00;101005.03;6227314;22;20208;-77
2022/12/19 09:09:43;;;;;;;30.07;16.17;;;;;;;-0.66;100.00;100995.56;6274049;22;20207;-78
2022/12/19 09:12:11;;;;;;;26.70;15.57;;;;;;;-0.64;100.00;100991.84;6246929;22;20275;-77
2022/12/19 09:14:37;;;;;;;29.07;15.77;;;;;;;-0.53;100.00;100981.38;6247312;22;20212;-77
2022/12/19 09:17:04;;;;;;;27.47;15.83;;;;;;;-0.32;100.00;100994.69;6274056;22;20291;-78
2022/12/19 09:19:31;;;;;;;30.57;16.67;;;;;;;-0.21;100.00;100999.97;6273947;22;20216;-79
2022/12/19 09:21:58;;;;;;;29.00;16.20;;;;;;;-0.27;100.00;100991.69;6245404;22;20200;-78
2022/12/19 09:24:25;;;;;;;28.53;15.67;;;;;;;-0.09;100.00;100988.50;6273173;22;20271;-77
2022/12/19 09:26:51;;;;;;;26.97;15.70;;;;;;;-0.25;100.00;100987.16;6274097;22;20212;-78
2022/12/19 09:29:18;;;;;;;28.93;16.00;;;;;;;-0.17;100.00;100990.03;6273624;22;20227;-77
2022/12/19 09:31:48;;;;;;;28.87;16.17;;;;;;;-0.04;100.00;100991.63;6273601;22;20251;-77
2022/12/19 09:34:27;;;;;;;28.53;16.67;;;;;;;-0.08;100.00;100991.97;6273252;22;20203;-76
2022/12/19 09:37:08;;;;;;;27.33;15.33;;;;;;;0.17;100.00;100993.53;6246860;22;20660;-77
2022/12/19 09:39:44;;;;;;;29.83;16.80;;;;;;;0.19;100.00;100986.34;6248685;22;20282;-77
2022/12/19 09:42:13;;;;;;;27.37;17.13;;;;;;;0.17;100.00;100980.38;6221296;22;20228;-77
2022/12/19 09:44:59;;;;;;;27.27;17.07;;;;;;;0.16;100.00;100991.88;6274352;22;20199;-77
2022/12/19 09:47:29;;;;;;;28.13;16.63;;;;;;;0.28;100.00;100993.56;6246703;22;20266;-77
2022/12/19 09:49:57;;;;;;;27.03;16.07;;;;;;;0.21;100.00;100998.47;6274462;22;20227;-78
2022/12/19 09:52:29;;;;;;;26.90;15.80;;;;;;;0.23;100.00;101000.97;6274675;22;20523;-78
2022/12/19 09:55:13;;;;;;;30.93;17.63;;;;;;;0.39;100.00;100989.09;6274010;22;20214;-78
2022/12/19 09:58:01;;;;;;;28.97;15.77;;;;;;;0.26;100.00;100982.28;6273867;22;20204;-77
2022/12/19 10:00:36;;;;;;;28.23;16.83;;;;;;;0.42;100.00;100985.41;6274579;22;20214;-78
2022/12/19 10:03:24;;;;;;;37.53;22.57;;;;;;;0.38;100.00;100989.22;6247514;22;20287;-78
2022/12/19 10:05:55;;;;;;;29.20;17.33;;;;;;;0.48;100.00;100984.88;6247439;22;20266;-78
2022/12/19 10:08:45;;;;;;;26.73;16.27;;;;;;;0.42;100.00;101003.84;6251830;22;20287;-79
2022/12/19 10:11:50;;;;;;;31.50;18.33;;;;;;;0.40;100.00;101005.75;6252828;22;20331;-78
2022/12/19 10:15:12;;;;;;;32.93;18.33;;;;;;;0.62;100.00;101004.88;6273976;22;20724;-77
2022/12/19 10:18:02;;;;;;;30.50;17.63;;;;;;;0.59;100.00;101008.63;6212277;22;20579;-78
2022/12/19 10:20:34;;;;;;;29.83;17.33;;;;;;;0.54;100.00;101009.94;6247284;22;20712;-77
2022/12/19 10:23:23;;;;;;;27.73;17.70;;;;;;;0.62;100.00;101002.25;6247621;22;20219;-78
2022/12/19 10:25:59;;;;;;;30.53;17.83;;;;;;;0.66;100.00;101009.78;6247437;22;20207;-78
2022/12/19 10:28:43;;;;;;;30.23;17.60;;;;;;;0.74;100.00;101020.59;6247055;22;20203;-77
2022/12/19 10:31:27;;;;;;;29.43;17.60;;;;;;;0.68;100.00;101023.72;6249031;22;20227;-78
2022/12/19 10:34:17;;;;;;;32.50;18.53;;;;;;;0.69;100.00;101021.91;6275848;22;20204;-77
2022/12/19 10:36:53;;;;;;;28.60;17.50;;;;;;;0.75;100.00;101021.41;6248178;22;20599;-77
2022/12/19 10:40:03;;;;;;;27.30;16.23;;;;;;;0.66;100.00;101006.31;6275805;22;20208;-78
2022/12/19 10:42:37;;;;;;;30.43;16.00;;;;;;;0.64;100.00;101008.25;6276008;22;20212;-77
2022/12/19 10:45:11;;;;;;;27.70;16.43;;;;;;;0.55;100.00;101001.91;6275727;22;20211;-77
2022/12/19 10:47:39;;;;;;;28.80;16.97;;;;;;;0.48;100.00;100992.78;6275730;22;20330;-77
2022/12/19 10:50:11;;;;;;;29.07;18.13;;;;;;;0.37;100.00;100998.09;6275140;22;20204;-77
2022/12/19 10:52:51;;;;;;;37.07;21.20;;;;;;;0.37;100.00;100985.72;6249472;22;20236;-77
2022/12/19 10:55:38;;;;;;;28.43;17.23;;;;;;;0.39;100.00;100986.47;6275669;22;20208;-78
2022/12/19 10:58:19;;;;;;;29.03;16.50;;;;;;;0.70;100.00;100986.66;6275202;22;20212;-77
2022/12/19 11:01:11;;;;;;;30.90;18.73;;;;;;;1.04;100.00;100995.28;6275737;22;20207;-78
2022/12/19 11:03:41;;;;;;;29.10;17.23;;;;;;;1.04;100.00;100988.22;6248918;22;20282;-78
2022/12/19 11:06:41;;;;;;;29.67;17.03;;;;;;;1.34;100.00;100990.16;6247976;22;20230;-77
2022/12/19 11:09:18;;;;;;;28.50;17.50;;;;;;;1.57;100.00;100994.34;6275537;22;20281;-78
2022/12/19 11:11:46;;;;;;;31.07;18.87;;;;;;;1.75;100.00;100990.16;6248579;22;20247;-79
2022/12/19 11:14:35;;;;;;;29.33;17.47;;;;;;;1.58;100.00;100989.91;6252712;22;20208;-78
2022/12/19 11:17:33;;;;;;;27.90;16.63;;;;;;;1.57;100.00;100993.50;6252636;22;20287;-78
2022/12/19 11:20:22;;;;;;;28.10;17.03;;;;;;;1.75;100.00;100989.31;6252688;22;20239;-77
2022/12/19 11:23:13;;;;;;;28.70;16.37;;;;;;;1.71;100.00;100982.59;6255873;22;20191;-79
2022/12/19 11:26:05;;;;;;;28.30;17.73;;;;;;;1.74;100.00;100980.53;6253651;22;20681;-78
2022/12/19 11:28:51;;;;;;;28.47;18.10;;;;;;;1.76;100.00;100973.31;6274737;22;20215;-78
2022/12/19 11:31:38;;;;;;;27.07;17.07;;;;;;;1.67;100.00;100965.34;6275399;22;20748;-79